sensor_id;sensor_type;location;lat;lon;timestamp;temperature;humidity
60717;DHT22;46566;52.700;6.192;2023-05-07T00:02:22;14.50;99.90
60717;DHT22;46566;52.700;6.192;2023-05-07T00:04:48;14.50;99.90
60717;DHT22;46566;52.700;6.192;2023-05-07T00:07:14;14.50;99.90
60717;DHT22;46566;52.700;6.192;2023-05-07T00:09:40;14.60;99.90
60717;DHT22;46566;52.700;6.192;2023-05-07T00:12:07;14.60;99.90
60717;DHT22;46566;52.700;6.192;2023-05-07T00:14:32;14.60;99.90
60717;DHT22;46566;52.700;6.192;2023-05-07T00:16:58;14.60;99.90
60717;DHT22;46566;52.700;6.192;2023-05-07T00:19:24;14.60;99.90
60717;DHT22;46566;52.700;6.192;2023-05-07T00:21:49;14.70;99.90
60717;DHT22;46566;52.700;6.192;2023-05-07T00:24:15;14.70;99.90
60717;DHT22;46566;52.700;6.192;2023-05-07T00:26:41;14.70;99.90
60717;DHT22;46566;52.700;6.192;2023-05-07T00:29:07;14.70;99.90
60717;DHT22;46566;52.700;6.192;2023-05-07T00:31:32;14.70;99.90
60717;DHT22;46566;52.700;6.192;2023-05-07T00:33:58;14.70;99.90
60717;DHT22;46566;52.700;6.192;2023-05-07T00:36:24;14.70;99.90
60717;DHT22;46566;52.700;6.192;2023-05-07T00:38:51;14.70;99.90
60717;DHT22;46566;52.700;6.192;2023-05-07T00:41:16;14.70;99.90
60717;DHT22;46566;52.700;6.192;2023-05-07T00:43:42;14.60;99.90
60717;DHT22;46566;52.700;6.192;2023-05-07T00:46:08;14.60;99.90
60717;DHT22;46566;52.700;6.192;2023-05-07T00:48:33;14.60;99.90
60717;DHT22;46566;52.700;6.192;2023-05-07T00:50:59;14.50;99.90
60717;DHT22;46566;52.700;6.192;2023-05-07T00:53:25;14.50;99.90
60717;DHT22;46566;52.700;6.192;2023-05-07T00:55:52;14.50;99.90
60717;DHT22;46566;52.700;6.192;2023-05-07T00:58:18;14.40;99.90
60717;DHT22;46566;52.700;6.192;2023-05-07T01:00:45;14.40;99.90
60717;DHT22;46566;52.700;6.192;2023-05-07T01:03:11;14.40;99.90
60717;DHT22;46566;52.700;6.192;2023-05-07T01:05:36;14.40;99.90
60717;DHT22;46566;52.700;6.192;2023-05-07T01:08:03;14.40;99.90
60717;DHT22;46566;52.700;6.192;2023-05-07T01:10:30;14.40;99.90
60717;DHT22;46566;52.700;6.192;2023-05-07T01:12:57;14.40;99.90
60717;DHT22;46566;52.700;6.192;2023-05-07T01:15:24;14.40;99.90
60717;DHT22;46566;52.700;6.192;2023-05-07T01:17:50;14.40;99.90
60717;DHT22;46566;52.700;6.192;2023-05-07T01:20:25;14.40;99.90
60717;DHT22;46566;52.700;6.192;2023-05-07T01:22:53;14.40;99.90
60717;DHT22;46566;52.700;6.192;2023-05-07T01:25:19;14.40;99.90
60717;DHT22;46566;52.700;6.192;2023-05-07T01:27:48;14.30;99.90
60717;DHT22;46566;52.700;6.192;2023-05-07T01:30:15;14.30;99.90
60717;DHT22;46566;52.700;6.192;2023-05-07T01:32:43;14.30;99.90
60717;DHT22;46566;52.700;6.192;2023-05-07T01:35:18;14.30;99.90
60717;DHT22;46566;52.700;6.192;2023-05-07T01:37:44;14.20;99.90
60717;DHT22;46566;52.700;6.192;2023-05-07T01:40:11;14.20;99.90
60717;DHT22;46566;52.700;6.192;2023-05-07T01:42:37;14.20;99.90
60717;DHT22;46566;52.700;6.192;2023-05-07T01:45:03;14.20;99.90
60717;DHT22;46566;52.700;6.192;2023-05-07T01:47:29;14.20;99.90
60717;DHT22;46566;52.700;6.192;2023-05-07T01:49:55;14.20;99.90
60717;DHT22;46566;52.700;6.192;2023-05-07T01:52:21;14.20;99.90
60717;DHT22;46566;52.700;6.192;2023-05-07T01:54:47;14.20;99.90
60717;DHT22;46566;52.700;6.192;2023-05-07T01:57:12;14.10;99.90
60717;DHT22;46566;52.700;6.192;2023-05-07T01:59:38;14.10;99.90
60717;DHT22;46566;52.700;6.192;2023-05-07T02:02:04;14.10;99.90
60717;DHT22;46566;52.700;6.192;2023-05-07T02:04:31;14.10;99.90
60717;DHT22;46566;52.700;6.192;2023-05-07T02:06:56;14.00;99.90
60717;DHT22;46566;52.700;6.192;2023-05-07T02:09:23;14.00;99.90
60717;DHT22;46566;52.700;6.192;2023-05-07T02:11:49;14.00;99.90
60717;DHT22;46566;52.700;6.192;2023-05-07T02:14:17;14.00;99.90
60717;DHT22;46566;52.700;6.192;2023-05-07T02:16:43;14.00;99.90
60717;DHT22;46566;52.700;6.192;2023-05-07T02:19:11;14.00;99.90
60717;DHT22;46566;52.700;6.192;2023-05-07T02:21:36;13.90;99.90
60717;DHT22;46566;52.700;6.192;2023-05-07T02:24:02;13.90;99.90
60717;DHT22;46566;52.700;6.192;2023-05-07T02:26:28;13.90;99.90
60717;DHT22;46566;52.700;6.192;2023-05-07T02:28:54;13.80;99.90
60717;DHT22;46566;52.700;6.192;2023-05-07T02:31:20;13.80;99.90
60717;DHT22;46566;52.700;6.192;2023-05-07T02:33:45;13.70;99.90
60717;DHT22;46566;52.700;6.192;2023-05-07T02:36:12;13.70;99.90
60717;DHT22;46566;52.700;6.192;2023-05-07T02:39:00;13.70;99.90
60717;DHT22;46566;52.700;6.192;2023-05-07T02:41:27;13.70;99.90
60717;DHT22;46566;52.700;6.192;2023-05-07T02:43:53;13.60;99.90
60717;DHT22;46566;52.700;6.192;2023-05-07T02:46:19;13.60;99.90
60717;DHT22;46566;52.700;6.192;2023-05-07T02:48:50;13.50;99.90
60717;DHT22;46566;52.700;6.192;2023-05-07T02:51:19;13.50;99.90
60717;DHT22;46566;52.700;6.192;2023-05-07T02:53:45;13.50;99.90
60717;DHT22;46566;52.700;6.192;2023-05-07T02:56:11;13.40;99.90
60717;DHT22;46566;52.700;6.192;2023-05-07T02:58:37;13.40;99.90
60717;DHT22;46566;52.700;6.192;2023-05-07T03:01:05;13.30;99.90
60717;DHT22;46566;52.700;6.192;2023-05-07T03:03:44;13.30;99.90
60717;DHT22;46566;52.700;6.192;2023-05-07T03:06:10;13.30;99.90
60717;DHT22;46566;52.700;6.192;2023-05-07T03:08:36;13.30;99.90
60717;DHT22;46566;52.700;6.192;2023-05-07T03:11:02;13.20;99.90
60717;DHT22;46566;52.700;6.192;2023-05-07T03:13:28;13.20;99.90
60717;DHT22;46566;52.700;6.192;2023-05-07T03:15:54;13.20;99.90
60717;DHT22;46566;52.700;6.192;2023-05-07T03:18:19;13.10;99.90
60717;DHT22;46566;52.700;6.192;2023-05-07T03:20:46;13.10;99.90
60717;DHT22;46566;52.700;6.192;2023-05-07T03:23:11;13.10;99.90
60717;DHT22;46566;52.700;6.192;2023-05-07T03:25:37;13.00;99.90
60717;DHT22;46566;52.700;6.192;2023-05-07T03:28:03;13.00;99.90
60717;DHT22;46566;52.700;6.192;2023-05-07T03:30:37;13.00;99.90
60717;DHT22;46566;52.700;6.192;2023-05-07T03:33:03;13.00;99.90
60717;DHT22;46566;52.700;6.192;2023-05-07T03:35:29;13.00;99.90
60717;DHT22;46566;52.700;6.192;2023-05-07T03:37:55;12.90;99.90
60717;DHT22;46566;52.700;6.192;2023-05-07T03:40:21;12.90;99.90
60717;DHT22;46566;52.700;6.192;2023-05-07T03:42:51;12.90;99.90
60717;DHT22;46566;52.700;6.192;2023-05-07T03:45:19;12.80;99.90
60717;DHT22;46566;52.700;6.192;2023-05-07T03:47:51;12.80;99.90
60717;DHT22;46566;52.700;6.192;2023-05-07T03:50:19;12.80;99.90
60717;DHT22;46566;52.700;6.192;2023-05-07T03:52:45;12.70;99.90
60717;DHT22;46566;52.700;6.192;2023-05-07T03:55:12;12.70;99.90
60717;DHT22;46566;52.700;6.192;2023-05-07T03:57:40;12.60;99.90
60717;DHT22;46566;52.700;6.192;2023-05-07T04:00:06;12.60;99.90
60717;DHT22;46566;52.700;6.192;2023-05-07T04:05:14;12.60;99.90
60717;DHT22;46566;52.700;6.192;2023-05-07T04:07:42;12.50;99.90
60717;DHT22;46566;52.700;6.192;2023-05-07T04:10:09;12.50;99.90
60717;DHT22;46566;52.700;6.192;2023-05-07T04:12:37;12.50;99.90
60717;DHT22;46566;52.700;6.192;2023-05-07T04:15:06;12.50;99.90
60717;DHT22;46566;52.700;6.192;2023-05-07T04:17:32;12.50;99.90
60717;DHT22;46566;52.700;6.192;2023-05-07T04:19:58;12.40;99.90
60717;DHT22;46566;52.700;6.192;2023-05-07T04:22:25;12.50;99.90
60717;DHT22;46566;52.700;6.192;2023-05-07T04:24:51;12.50;99.90
60717;DHT22;46566;52.700;6.192;2023-05-07T04:27:17;12.40;99.90
60717;DHT22;46566;52.700;6.192;2023-05-07T04:29:42;12.40;99.90
60717;DHT22;46566;52.700;6.192;2023-05-07T04:32:13;12.40;99.90
60717;DHT22;46566;52.700;6.192;2023-05-07T04:34:39;12.40;99.90
60717;DHT22;46566;52.700;6.192;2023-05-07T04:37:06;12.40;99.90
60717;DHT22;46566;52.700;6.192;2023-05-07T04:39:32;12.40;99.90
60717;DHT22;46566;52.700;6.192;2023-05-07T04:42:00;12.40;99.90
60717;DHT22;46566;52.700;6.192;2023-05-07T04:44:26;12.40;99.90
60717;DHT22;46566;52.700;6.192;2023-05-07T04:47:18;12.30;99.90
60717;DHT22;46566;52.700;6.192;2023-05-07T04:49:44;12.30;99.90
60717;DHT22;46566;52.700;6.192;2023-05-07T04:52:11;12.30;99.90
60717;DHT22;46566;52.700;6.192;2023-05-07T04:54:37;12.30;99.90
60717;DHT22;46566;52.700;6.192;2023-05-07T04:57:28;12.30;99.90
60717;DHT22;46566;52.700;6.192;2023-05-07T04:59:54;12.30;99.90
60717;DHT22;46566;52.700;6.192;2023-05-07T05:02:20;12.30;99.90
60717;DHT22;46566;52.700;6.192;2023-05-07T05:04:46;12.30;99.90
60717;DHT22;46566;52.700;6.192;2023-05-07T05:07:37;12.30;99.90
60717;DHT22;46566;52.700;6.192;2023-05-07T05:10:05;12.30;99.90
60717;DHT22;46566;52.700;6.192;2023-05-07T05:12:33;12.30;99.90
60717;DHT22;46566;52.700;6.192;2023-05-07T05:15:00;12.30;99.90
60717;DHT22;46566;52.700;6.192;2023-05-07T05:17:52;12.30;99.90
60717;DHT22;46566;52.700;6.192;2023-05-07T05:20:18;12.30;99.90
60717;DHT22;46566;52.700;6.192;2023-05-07T05:22:44;12.30;99.90
60717;DHT22;46566;52.700;6.192;2023-05-07T05:25:30;12.30;99.90
60717;DHT22;46566;52.700;6.192;2023-05-07T05:27:57;12.30;99.90
60717;DHT22;46566;52.700;6.192;2023-05-07T05:30:23;12.30;99.90
60717;DHT22;46566;52.700;6.192;2023-05-07T05:32:49;12.30;99.90
60717;DHT22;46566;52.700;6.192;2023-05-07T05:35:15;12.30;99.90
60717;DHT22;46566;52.700;6.192;2023-05-07T05:38:08;12.40;99.90
60717;DHT22;46566;52.700;6.192;2023-05-07T05:40:34;12.40;99.90
60717;DHT22;46566;52.700;6.192;2023-05-07T05:42:59;12.40;99.90
60717;DHT22;46566;52.700;6.192;2023-05-07T05:45:26;12.40;99.90
60717;DHT22;46566;52.700;6.192;2023-05-07T05:48:16;12.40;99.90
60717;DHT22;46566;52.700;6.192;2023-05-07T05:50:42;12.40;99.90
60717;DHT22;46566;52.700;6.192;2023-05-07T05:53:08;12.50;99.90
60717;DHT22;46566;52.700;6.192;2023-05-07T05:55:34;12.50;99.90
60717;DHT22;46566;52.700;6.192;2023-05-07T05:58:25;12.50;99.90
60717;DHT22;46566;52.700;6.192;2023-05-07T06:00:56;12.50;99.90
60717;DHT22;46566;52.700;6.192;2023-05-07T06:03:25;12.50;99.90
60717;DHT22;46566;52.700;6.192;2023-05-07T06:06:04;12.50;99.90
60717;DHT22;46566;52.700;6.192;2023-05-07T06:08:30;12.50;99.90
60717;DHT22;46566;52.700;6.192;2023-05-07T07:09:29;12.50;99.90
60717;DHT22;46566;52.700;6.192;2023-05-07T07:11:55;14.00;99.90
60717;DHT22;46566;52.700;6.192;2023-05-07T07:14:21;14.00;99.90
60717;DHT22;46566;52.700;6.192;2023-05-07T07:16:50;14.20;99.90
60717;DHT22;46566;52.700;6.192;2023-05-07T07:19:18;14.30;99.90
60717;DHT22;46566;52.700;6.192;2023-05-07T07:21:46;14.30;99.90
60717;DHT22;46566;52.700;6.192;2023-05-07T07:24:13;14.30;99.90
60717;DHT22;46566;52.700;6.192;2023-05-07T07:26:44;14.40;99.90
60717;DHT22;46566;52.700;6.192;2023-05-07T07:29:24;14.50;99.90
60717;DHT22;46566;52.700;6.192;2023-05-07T07:31:52;14.60;99.90
60717;DHT22;46566;52.700;6.192;2023-05-07T07:34:19;14.70;99.90
60717;DHT22;46566;52.700;6.192;2023-05-07T07:36:45;14.80;99.90
60717;DHT22;46566;52.700;6.192;2023-05-07T07:39:10;14.80;99.90
60717;DHT22;46566;52.700;6.192;2023-05-07T07:42:02;14.80;99.90
60717;DHT22;46566;52.700;6.192;2023-05-07T07:44:29;14.80;99.90
60717;DHT22;46566;52.700;6.192;2023-05-07T07:46:59;14.90;99.90
60717;DHT22;46566;52.700;6.192;2023-05-07T07:49:41;14.90;99.90
60717;DHT22;46566;52.700;6.192;2023-05-07T07:52:09;15.00;99.90
60717;DHT22;46566;52.700;6.192;2023-05-07T07:54:38;15.10;99.90
60717;DHT22;46566;52.700;6.192;2023-05-07T07:57:06;15.10;99.90
60717;DHT22;46566;52.700;6.192;2023-05-07T07:59:51;15.20;99.90
60717;DHT22;46566;52.700;6.192;2023-05-07T08:02:17;15.20;99.90
60717;DHT22;46566;52.700;6.192;2023-05-07T08:04:46;15.30;99.90
60717;DHT22;46566;52.700;6.192;2023-05-07T08:07:12;15.30;99.90
60717;DHT22;46566;52.700;6.192;2023-05-07T08:09:58;15.30;99.90
60717;DHT22;46566;52.700;6.192;2023-05-07T08:12:25;15.40;99.90
60717;DHT22;46566;52.700;6.192;2023-05-07T08:14:51;15.40;99.90
60717;DHT22;46566;52.700;6.192;2023-05-07T08:17:17;15.50;99.90
60717;DHT22;46566;52.700;6.192;2023-05-07T08:19:44;15.70;99.90
60717;DHT22;46566;52.700;6.192;2023-05-07T08:22:26;15.80;99.90
60717;DHT22;46566;52.700;6.192;2023-05-07T08:24:52;16.10;99.90
60717;DHT22;46566;52.700;6.192;2023-05-07T08:27:19;16.20;99.90
60717;DHT22;46566;52.700;6.192;2023-05-07T08:29:45;16.60;99.90
60717;DHT22;46566;52.700;6.192;2023-05-07T08:32:39;17.00;99.90
60717;DHT22;46566;52.700;6.192;2023-05-07T08:35:05;17.30;99.90
60717;DHT22;46566;52.700;6.192;2023-05-07T08:42:49;19.40;99.90
60717;DHT22;46566;52.700;6.192;2023-05-07T08:45:15;19.50;99.90
60717;DHT22;46566;52.700;6.192;2023-05-07T08:47:46;19.50;99.90
60717;DHT22;46566;52.700;6.192;2023-05-07T08:50:31;20.00;99.90
60717;DHT22;46566;52.700;6.192;2023-05-07T09:00:37;21.00;99.90
60717;DHT22;46566;52.700;6.192;2023-05-07T09:03:05;21.30;99.90
60717;DHT22;46566;52.700;6.192;2023-05-07T09:05:31;21.50;99.90
60717;DHT22;46566;52.700;6.192;2023-05-07T09:08:02;21.70;99.90
60717;DHT22;46566;52.700;6.192;2023-05-07T09:10:48;21.90;99.90
60717;DHT22;46566;52.700;6.192;2023-05-07T09:13:14;22.10;99.90
60717;DHT22;46566;52.700;6.192;2023-05-07T09:15:41;22.40;99.90
60717;DHT22;46566;52.700;6.192;2023-05-07T09:18:07;22.50;99.90
60717;DHT22;46566;52.700;6.192;2023-05-07T09:23:21;22.40;99.90
60717;DHT22;46566;52.700;6.192;2023-05-07T09:25:46;21.90;99.90
60717;DHT22;46566;52.700;6.192;2023-05-07T09:28:23;21.40;99.90
60717;DHT22;46566;52.700;6.192;2023-05-07T09:31:04;20.90;99.90
60717;DHT22;46566;52.700;6.192;2023-05-07T09:33:30;20.60;99.90
60717;DHT22;46566;52.700;6.192;2023-05-07T09:35:57;20.60;99.90
60717;DHT22;46566;52.700;6.192;2023-05-07T09:38:23;20.60;99.90
60717;DHT22;46566;52.700;6.192;2023-05-07T09:41:09;20.30;99.90
60717;DHT22;46566;52.700;6.192;2023-05-07T09:43:54;20.50;99.90
60717;DHT22;46566;52.700;6.192;2023-05-07T09:46:30;20.80;99.90
60717;DHT22;46566;52.700;6.192;2023-05-07T09:49:23;20.80;99.90
60717;DHT22;46566;52.700;6.192;2023-05-07T09:51:57;20.90;99.90
60717;DHT22;46566;52.700;6.192;2023-05-07T09:54:50;20.90;99.90
60717;DHT22;46566;52.700;6.192;2023-05-07T09:57:20;21.10;99.90
60717;DHT22;46566;52.700;6.192;2023-05-07T09:59:52;21.40;99.90
60717;DHT22;46566;52.700;6.192;2023-05-07T10:02:36;21.40;99.90
60717;DHT22;46566;52.700;6.192;2023-05-07T10:05:03;21.50;99.90
60717;DHT22;46566;52.700;6.192;2023-05-07T10:07:31;21.90;99.90
60717;DHT22;46566;52.700;6.192;2023-05-07T10:10:04;21.80;99.90
60717;DHT22;46566;52.700;6.192;2023-05-07T10:13:01;21.80;99.90
60717;DHT22;46566;52.700;6.192;2023-05-07T10:15:32;21.90;99.90
60717;DHT22;46566;52.700;6.192;2023-05-07T10:18:00;22.10;99.90
60717;DHT22;46566;52.700;6.192;2023-05-07T10:20:51;22.10;99.90
60717;DHT22;46566;52.700;6.192;2023-05-07T10:23:23;21.90;99.90
60717;DHT22;46566;52.700;6.192;2023-05-07T10:25:50;22.00;99.90
60717;DHT22;46566;52.700;6.192;2023-05-07T10:28:33;21.90;99.90
60717;DHT22;46566;52.700;6.192;2023-05-07T10:31:16;21.80;99.90
60717;DHT22;46566;52.700;6.192;2023-05-07T10:33:47;21.70;99.90
60717;DHT22;46566;52.700;6.192;2023-05-07T10:36:40;21.80;99.90
60717;DHT22;46566;52.700;6.192;2023-05-07T10:39:08;21.70;99.90
60717;DHT22;46566;52.700;6.192;2023-05-07T10:41:36;21.40;99.90
60717;DHT22;46566;52.700;6.192;2023-05-07T10:44:36;21.10;99.90
60717;DHT22;46566;52.700;6.192;2023-05-07T10:47:08;21.00;99.90
60717;DHT22;46566;52.700;6.192;2023-05-07T10:52:25;21.50;99.90
60717;DHT22;46566;52.700;6.192;2023-05-07T10:55:32;21.70;99.90
60717;DHT22;46566;52.700;6.192;2023-05-07T10:58:28;21.80;99.90
60717;DHT22;46566;52.700;6.192;2023-05-07T11:04:43;22.10;99.90
60717;DHT22;46566;52.700;6.192;2023-05-07T11:07:30;22.30;99.90
60717;DHT22;46566;52.700;6.192;2023-05-07T11:13:46;22.60;99.90
60717;DHT22;46566;52.700;6.192;2023-05-07T11:16:35;22.80;99.90
60717;DHT22;46566;52.700;6.192;2023-05-07T11:22:41;22.80;99.90
60717;DHT22;46566;52.700;6.192;2023-05-07T11:25:27;22.40;99.90
60717;DHT22;46566;52.700;6.192;2023-05-07T11:28:23;22.40;99.90
60717;DHT22;46566;52.700;6.192;2023-05-07T11:30:59;22.40;99.90
60717;DHT22;46566;52.700;6.192;2023-05-07T11:33:25;22.50;99.90
60717;DHT22;46566;52.700;6.192;2023-05-07T11:36:07;22.50;99.90
60717;DHT22;46566;52.700;6.192;2023-05-07T11:38:37;22.60;99.90
60717;DHT22;46566;52.700;6.192;2023-05-07T11:41:04;22.50;99.90
60717;DHT22;46566;52.700;6.192;2023-05-07T11:43:32;22.40;99.90
60717;DHT22;46566;52.700;6.192;2023-05-07T11:46:14;22.40;99.90
60717;DHT22;46566;52.700;6.192;2023-05-07T11:48:39;22.40;99.90
60717;DHT22;46566;52.700;6.192;2023-05-07T11:51:07;22.30;99.90
60717;DHT22;46566;52.700;6.192;2023-05-07T11:53:42;22.30;99.90
60717;DHT22;46566;52.700;6.192;2023-05-07T11:56:28;22.30;99.90
60717;DHT22;46566;52.700;6.192;2023-05-07T11:58:54;22.10;99.90
60717;DHT22;46566;52.700;6.192;2023-05-07T12:01:20;21.90;99.90
60717;DHT22;46566;52.700;6.192;2023-05-07T12:03:49;21.70;99.90
60717;DHT22;46566;52.700;6.192;2023-05-07T12:06:30;21.70;99.90
60717;DHT22;46566;52.700;6.192;2023-05-07T12:08:56;21.50;99.90
60717;DHT22;46566;52.700;6.192;2023-05-07T12:11:23;21.40;99.90
60717;DHT22;46566;52.700;6.192;2023-05-07T12:13:50;21.40;99.90
60717;DHT22;46566;52.700;6.192;2023-05-07T12:16:17;21.60;99.90
60717;DHT22;46566;52.700;6.192;2023-05-07T12:19:08;21.80;99.90
60717;DHT22;46566;52.700;6.192;2023-05-07T12:21:38;21.90;99.90
60717;DHT22;46566;52.700;6.192;2023-05-07T12:24:04;21.90;99.90
60717;DHT22;46566;52.700;6.192;2023-05-07T12:26:55;21.90;99.90
60717;DHT22;46566;52.700;6.192;2023-05-07T12:29:22;21.50;99.90
60717;DHT22;46566;52.700;6.192;2023-05-07T12:31:49;21.50;99.90
60717;DHT22;46566;52.700;6.192;2023-05-07T12:34:15;21.50;99.90
60717;DHT22;46566;52.700;6.192;2023-05-07T12:36:55;21.60;99.90
60717;DHT22;46566;52.700;6.192;2023-05-07T12:39:21;21.70;99.90
60717;DHT22;46566;52.700;6.192;2023-05-07T12:41:57;21.60;99.90
60717;DHT22;46566;52.700;6.192;2023-05-07T12:44:50;21.50;99.90
60717;DHT22;46566;52.700;6.192;2023-05-07T12:47:15;21.50;99.90
60717;DHT22;46566;52.700;6.192;2023-05-07T12:49:41;21.40;99.90
60717;DHT22;46566;52.700;6.192;2023-05-07T12:52:07;21.30;99.90
60717;DHT22;46566;52.700;6.192;2023-05-07T12:54:37;21.20;99.90
60717;DHT22;46566;52.700;6.192;2023-05-07T12:59:57;21.10;99.90
60717;DHT22;46566;52.700;6.192;2023-05-07T13:02:44;21.10;99.90
60717;DHT22;46566;52.700;6.192;2023-05-07T13:05:10;21.10;99.90
60717;DHT22;46566;52.700;6.192;2023-05-07T13:07:37;20.90;99.90
60717;DHT22;46566;52.700;6.192;2023-05-07T13:10:03;20.90;99.90
60717;DHT22;46566;52.700;6.192;2023-05-07T13:12:29;20.60;99.90
60717;DHT22;46566;52.700;6.192;2023-05-07T13:15:15;20.30;99.90
60717;DHT22;46566;52.700;6.192;2023-05-07T13:17:41;20.30;99.90
60717;DHT22;46566;52.700;6.192;2023-05-07T13:20:08;20.40;99.90
60717;DHT22;46566;52.700;6.192;2023-05-07T13:22:34;20.50;99.90
60717;DHT22;46566;52.700;6.192;2023-05-07T13:25:00;20.40;99.90
60717;DHT22;46566;52.700;6.192;2023-05-07T13:27:37;20.40;99.90
60717;DHT22;46566;52.700;6.192;2023-05-07T13:30:04;20.50;99.90
60717;DHT22;46566;52.700;6.192;2023-05-07T13:32:30;20.60;99.90
60717;DHT22;46566;52.700;6.192;2023-05-07T13:34:57;20.70;99.90
60717;DHT22;46566;52.700;6.192;2023-05-07T13:37:22;20.80;99.90
60717;DHT22;46566;52.700;6.192;2023-05-07T13:40:13;20.90;99.90
60717;DHT22;46566;52.700;6.192;2023-05-07T13:42:39;21.00;99.90
60717;DHT22;46566;52.700;6.192;2023-05-07T13:45:05;21.10;99.90
60717;DHT22;46566;52.700;6.192;2023-05-07T13:47:31;21.20;99.90
60717;DHT22;46566;52.700;6.192;2023-05-07T13:50:21;21.40;99.90
60717;DHT22;46566;52.700;6.192;2023-05-07T13:52:47;21.60;99.90
60717;DHT22;46566;52.700;6.192;2023-05-07T13:55:20;21.70;99.90
60717;DHT22;46566;52.700;6.192;2023-05-07T13:58:02;21.80;99.90
60717;DHT22;46566;52.700;6.192;2023-05-07T14:00:29;21.90;99.90
60717;DHT22;46566;52.700;6.192;2023-05-07T14:02:55;21.80;99.90
60717;DHT22;46566;52.700;6.192;2023-05-07T14:05:21;21.80;99.90
60717;DHT22;46566;52.700;6.192;2023-05-07T14:08:09;21.80;99.90
60717;DHT22;46566;52.700;6.192;2023-05-07T14:10:37;21.70;99.90
60717;DHT22;46566;52.700;6.192;2023-05-07T14:13:03;21.70;99.90
60717;DHT22;46566;52.700;6.192;2023-05-07T14:15:29;21.70;99.90
60717;DHT22;46566;52.700;6.192;2023-05-07T14:17:54;21.80;99.90
60717;DHT22;46566;52.700;6.192;2023-05-07T14:20:46;21.70;99.90
60717;DHT22;46566;52.700;6.192;2023-05-07T14:23:14;21.70;99.90
60717;DHT22;46566;52.700;6.192;2023-05-07T14:25:40;21.60;99.90
60717;DHT22;46566;52.700;6.192;2023-05-07T14:28:06;21.50;99.90
60717;DHT22;46566;52.700;6.192;2023-05-07T14:30:58;21.40;99.90
60717;DHT22;46566;52.700;6.192;2023-05-07T14:33:23;21.40;99.90
60717;DHT22;46566;52.700;6.192;2023-05-07T14:35:49;21.30;99.90
60717;DHT22;46566;52.700;6.192;2023-05-07T14:38:15;21.20;99.90
60717;DHT22;46566;52.700;6.192;2023-05-07T14:41:06;21.20;99.90
60717;DHT22;46566;52.700;6.192;2023-05-07T14:43:31;21.20;99.90
60717;DHT22;46566;52.700;6.192;2023-05-07T14:45:57;21.20;99.90
60717;DHT22;46566;52.700;6.192;2023-05-07T14:48:23;21.10;99.90
60717;DHT22;46566;52.700;6.192;2023-05-07T14:51:14;21.10;99.90
60717;DHT22;46566;52.700;6.192;2023-05-07T14:53:41;21.10;99.90
60717;DHT22;46566;52.700;6.192;2023-05-07T14:56:07;21.10;99.90
60717;DHT22;46566;52.700;6.192;2023-05-07T14:58:58;21.10;99.90
60717;DHT22;46566;52.700;6.192;2023-05-07T15:01:25;21.10;99.90
60717;DHT22;46566;52.700;6.192;2023-05-07T15:03:51;21.20;99.90
60717;DHT22;46566;52.700;6.192;2023-05-07T15:06:17;21.10;99.90
60717;DHT22;46566;52.700;6.192;2023-05-07T15:09:01;20.90;99.90
60717;DHT22;46566;52.700;6.192;2023-05-07T15:11:27;20.90;99.90
60717;DHT22;46566;52.700;6.192;2023-05-07T15:13:52;20.90;99.90
60717;DHT22;46566;52.700;6.192;2023-05-07T15:16:18;21.00;99.90
60717;DHT22;46566;52.700;6.192;2023-05-07T15:18:44;20.90;99.90
60717;DHT22;46566;52.700;6.192;2023-05-07T15:21:35;21.00;99.90
60717;DHT22;46566;52.700;6.192;2023-05-07T15:24:02;20.90;99.90
60717;DHT22;46566;52.700;6.192;2023-05-07T15:26:27;20.90;99.90
60717;DHT22;46566;52.700;6.192;2023-05-07T15:28:53;20.80;99.90
60717;DHT22;46566;52.700;6.192;2023-05-07T15:31:47;20.70;99.90
60717;DHT22;46566;52.700;6.192;2023-05-07T15:34:13;20.70;99.90
60717;DHT22;46566;52.700;6.192;2023-05-07T15:36:40;20.70;99.90
60717;DHT22;46566;52.700;6.192;2023-05-07T15:39:31;20.60;99.90
60717;DHT22;46566;52.700;6.192;2023-05-07T15:41:57;20.60;99.90
60717;DHT22;46566;52.700;6.192;2023-05-07T15:44:22;20.60;99.90
60717;DHT22;46566;52.700;6.192;2023-05-07T15:46:53;20.50;99.90
60717;DHT22;46566;52.700;6.192;2023-05-07T15:49:32;20.50;99.90
60717;DHT22;46566;52.700;6.192;2023-05-07T15:51:58;20.50;99.90
60717;DHT22;46566;52.700;6.192;2023-05-07T16:06:05;20.00;99.90
60717;DHT22;46566;52.700;6.192;2023-05-07T16:08:31;20.00;99.90
60717;DHT22;46566;52.700;6.192;2023-05-07T16:14:04;19.90;99.90
60717;DHT22;46566;52.700;6.192;2023-05-07T16:19:25;20.00;99.90
60717;DHT22;46566;52.700;6.192;2023-05-07T16:24:54;20.10;99.90
60717;DHT22;46566;52.700;6.192;2023-05-07T16:30:48;20.10;99.90
60717;DHT22;46566;52.700;6.192;2023-05-07T16:36:17;20.00;99.90
60717;DHT22;46566;52.700;6.192;2023-05-07T16:38:44;20.00;99.90
60717;DHT22;46566;52.700;6.192;2023-05-07T16:47:41;20.10;99.90
60717;DHT22;46566;52.700;6.192;2023-05-07T16:53:09;20.10;99.90
60717;DHT22;46566;52.700;6.192;2023-05-07T17:39:28;20.00;99.90
60717;DHT22;46566;52.700;6.192;2023-05-07T17:41:54;20.00;99.90
60717;DHT22;46566;52.700;6.192;2023-05-07T17:44:20;20.00;99.90
60717;DHT22;46566;52.700;6.192;2023-05-07T18:05:28;19.40;99.90
60717;DHT22;46566;52.700;6.192;2023-05-07T18:07:54;19.30;99.90
60717;DHT22;46566;52.700;6.192;2023-05-07T18:16:22;19.10;99.90
60717;DHT22;46566;52.700;6.192;2023-05-07T18:24:53;19.00;99.90
60717;DHT22;46566;52.700;6.192;2023-05-07T18:36:44;18.80;99.90
60717;DHT22;46566;52.700;6.192;2023-05-07T18:39:09;18.70;99.90
60717;DHT22;46566;52.700;6.192;2023-05-07T18:41:35;18.70;99.90
60717;DHT22;46566;52.700;6.192;2023-05-07T18:47:04;18.60;99.90
60717;DHT22;46566;52.700;6.192;2023-05-07T18:58:34;18.30;99.90
60717;DHT22;46566;52.700;6.192;2023-05-07T19:03:49;18.20;99.90
60717;DHT22;46566;52.700;6.192;2023-05-07T19:12:14;18.00;99.90
60717;DHT22;46566;52.700;6.192;2023-05-07T19:14:39;17.90;99.90
60717;DHT22;46566;52.700;6.192;2023-05-07T19:17:07;17.80;99.90
60717;DHT22;46566;52.700;6.192;2023-05-07T19:19:33;17.80;99.90
60717;DHT22;46566;52.700;6.192;2023-05-07T19:21:58;17.70;99.90
60717;DHT22;46566;52.700;6.192;2023-05-07T19:34:08;17.20;99.90
60717;DHT22;46566;52.700;6.192;2023-05-07T19:36:34;17.30;99.90
60717;DHT22;46566;52.700;6.192;2023-05-07T19:39:00;17.40;99.90
60717;DHT22;46566;52.700;6.192;2023-05-07T19:41:25;17.20;99.90
60717;DHT22;46566;52.700;6.192;2023-05-07T19:43:51;17.30;99.90
60717;DHT22;46566;52.700;6.192;2023-05-07T19:46:17;17.10;99.90
60717;DHT22;46566;52.700;6.192;2023-05-07T19:48:43;17.10;99.90
60717;DHT22;46566;52.700;6.192;2023-05-07T19:51:09;17.20;99.90
60717;DHT22;46566;52.700;6.192;2023-05-07T19:53:35;17.00;99.90
60717;DHT22;46566;52.700;6.192;2023-05-07T19:56:03;16.90;99.90